Time;durP1;ratioP1;P1;durP2;ratioP2;P2;SDS_P1;SDS_P2;PMS_P1;PMS_P2;Temp;Humidity;BMP_temperature;BMP_pressure;BME280_temperature;BME280_humidity;BME280_pressure;Samples;Min_cycle;Max_cycle;Signal;HPM_P1;HPM_P2
2020/12/07 00:00:47;;;;;;;;;;;;;;;;;;5033817;28;19925;-79
2020/12/07 00:03:13;;;;;;;;;;;;;;;;;;5028971;28;20291;-79
2020/12/07 00:05:39;;;;;;;;;;;;;;;;;;5017239;28;20023;-79
2020/12/07 00:08:05;;;;;;;;;;;;;;;;;;5013962;28;19910;-79
2020/12/07 00:10:31;;;;;;;;;;;;;;;;;;5011979;28;19917;-79
2020/12/07 00:12:57;;;;;;;;;;;;;;;;;;4996924;28;19920;-79
2020/12/07 00:15:23;;;;;;;;;;;;;;;;;;5012338;28;19910;-78
2020/12/07 00:17:49;;;;;;;;;;;;;;;;;;5012237;28;19909;-78
2020/12/07 00:20:16;;;;;;;;;;;;;;;;;;5010212;28;20427;-78
2020/12/07 00:22:42;;;;;;;;;;;;;;;;;;4994114;28;19910;-79
2020/12/07 00:25:08;;;;;;;;;;;;;;;;;;4995238;28;19917;-78
2020/12/07 00:27:34;;;;;;;;;;;;;;;;;;5009865;28;19932;-78
2020/12/07 00:30:00;;;;;;;;;;;;;;;;;;5010068;28;20364;-79
2020/12/07 00:32:25;;;;;;;;;;;;;;;;;;4995540;28;19961;-79
2020/12/07 00:34:51;;;;;;;;;;;;;;;;;;4995233;28;19965;-79
2020/12/07 00:37:17;;;;;;;;;;;;;;;;;;5032033;28;19909;-79
2020/12/07 00:39:43;;;;;;;;;;;;;;;;;;5026666;28;19925;-78
2020/12/07 00:42:09;;;;;;;;;;;;;;;;;;5028113;28;19913;-79
2020/12/07 00:44:35;;;;;;;;;;;;;;;;;;5033461;28;19996;-79
2020/12/07 00:47:01;;;;;;;;;;;;;;;;;;5048441;28;19909;-78
2020/12/07 00:49:27;;;;;;;;;;;;;;;;;;5037058;28;19909;-78
2020/12/07 00:51:53;;;;;;;;;;;;;;;;;;5048573;28;19910;-78
2020/12/07 00:54:19;;;;;;;;;;;;;;;;;;5037807;28;20021;-80
2020/12/07 00:56:45;;;;;;;;;;;;;;;;;;5038243;28;19910;-79
2020/12/07 00:59:11;;;;;;;;;;;;;;;;;;5054006;28;19981;-81
2020/12/07 01:01:37;;;;;;;;;;;;;;;;;;5055749;28;19936;-81
2020/12/07 01:04:03;;;;;;;;;;;;;;;;;;5040684;28;19909;-79
2020/12/07 01:06:29;;;;;;;;;;;;;;;;;;5030081;28;19944;-79
2020/12/07 01:08:55;;;;;;;;;;;;;;;;;;5017146;28;20353;-79
2020/12/07 01:11:20;;;;;;;;;;;;;;;;;;5019802;28;19909;-79
2020/12/07 01:13:46;;;;;;;;;;;;;;;;;;5015965;28;19999;-79
2020/12/07 01:16:12;;;;;;;;;;;;;;;;;;5031636;28;20364;-80
2020/12/07 01:18:38;;;;;;;;;;;;;;;;;;5030943;28;19909;-81
2020/12/07 01:21:04;;;;;;;;;;;;;;;;;;5024433;28;19938;-80
2020/12/07 01:23:30;;;;;;;;;;;;;;;;;;5036935;28;19910;-80
2020/12/07 01:25:56;;;;;;;;;;;;;;;;;;5007653;28;19914;-82
2020/12/07 01:28:22;;;;;;;;;;;;;;;;;;5018799;28;19905;-81
2020/12/07 01:30:48;;;;;;;;;;;;;;;;;;5014889;28;19946;-80
2020/12/07 01:33:14;;;;;;;;;;;;;;;;;;5011359;28;20361;-79
2020/12/07 01:35:42;;;;;;;;;;;;;;;;;;5012096;28;19910;-80
2020/12/07 01:38:07;;;;;;;;;;;;;;;;;;5010930;28;19910;-80
2020/12/07 01:40:33;;;;;;;;;;;;;;;;;;5002262;28;19924;-80
2020/12/07 01:42:59;;;;;;;;;;;;;;;;;;5021222;28;19917;-79
2020/12/07 01:45:25;;;;;;;;;;;;;;;;;;5011452;28;19910;-79
2020/12/07 01:47:51;;;;;;;;;;;;;;;;;;5014595;28;19953;-80
2020/12/07 01:50:17;;;;;;;;;;;;;;;;;;5011564;28;19910;-79
2020/12/07 01:52:43;;;;;;;;;;;;;;;;;;5023488;28;19982;-79
2020/12/07 01:55:09;;;;;;;;;;;;;;;;;;5020071;28;20356;-79
2020/12/07 01:57:35;;;;;;;;;;;;;;;;;;4994603;28;19916;-79
2020/12/07 02:00:01;;;;;;;;;;;;;;;;;;4995645;28;19968;-79
2020/12/07 02:02:26;;;;;;;;;;;;;;;;;;5012321;28;19913;-78
2020/12/07 02:04:52;;;;;;;;;;;;;;;;;;4994687;28;19910;-80
2020/12/07 02:07:18;;;;;;;;;;;;;;;;;;4994335;28;19917;-79
2020/12/07 02:09:44;;;;;;;;;;;;;;;;;;4994251;28;19910;-79
2020/12/07 02:12:10;;;;;;;;;;;;;;;;;;5027718;28;19936;-80
2020/12/07 02:14:36;;;;;;;;;;;;;;;;;;5014849;28;19918;-79
2020/12/07 02:17:02;;;;;;;;;;;;;;;;;;5008249;28;19910;-79
2020/12/07 02:19:28;;;;;;;;;;;;;;;;;;4996784;28;19909;-80
2020/12/07 02:21:54;;;;;;;;;;;;;;;;;;5000263;28;19953;-79
2020/12/07 02:24:20;;;;;;;;;;;;;;;;;;4994871;28;20369;-79
2020/12/07 02:26:46;;;;;;;;;;;;;;;;;;4996626;28;19914;-79
2020/12/07 02:29:12;;;;;;;;;;;;;;;;;;5016906;28;19917;-82
2020/12/07 02:31:38;;;;;;;;;;;;;;;;;;4998943;28;19921;-79
2020/12/07 02:34:03;;;;;;;;;;;;;;;;;;4995449;28;19953;-79
2020/12/07 02:36:29;;;;;;;;;;;;;;;;;;5012215;28;19910;-78
2020/12/07 02:38:55;;;;;;;;;;;;;;;;;;4994264;28;19910;-79
2020/12/07 02:41:21;;;;;;;;;;;;;;;;;;5011230;28;19999;-79
2020/12/07 02:43:47;;;;;;;;;;;;;;;;;;5025889;28;19962;-79
2020/12/07 02:46:13;;;;;;;;;;;;;;;;;;4996192;28;19909;-76
2020/12/07 02:48:39;;;;;;;;;;;;;;;;;;5027839;28;19910;-80
2020/12/07 02:51:05;;;;;;;;;;;;;;;;;;4994107;28;19909;-79
2020/12/07 02:53:31;;;;;;;;;;;;;;;;;;4994010;28;19929;-78
2020/12/07 02:55:57;;;;;;;;;;;;;;;;;;4995820;28;19910;-79
2020/12/07 02:58:23;;;;;;;;;;;;;;;;;;4998231;28;20422;-79
2020/12/07 03:00:49;;;;;;;;;;;;;;;;;;4998792;28;19909;-79
2020/12/07 03:03:14;;;;;;;;;;;;;;;;;;5023953;28;19955;-79
2020/12/07 03:05:40;;;;;;;;;;;;;;;;;;5011134;28;20511;-78
2020/12/07 03:08:06;;;;;;;;;;;;;;;;;;5034840;28;19914;-79
2020/12/07 03:10:32;;;;;;;;;;;;;;;;;;5011924;28;19910;-79
2020/12/07 03:12:58;;;;;;;;;;;;;;;;;;5043995;28;20015;-79
2020/12/07 03:15:24;;;;;;;;;;;;;;;;;;5044122;28;19961;-79
2020/12/07 03:17:50;;;;;;;;;;;;;;;;;;5056446;28;19918;-80
2020/12/07 03:20:16;;;;;;;;;;;;;;;;;;5026210;28;19917;-78
2020/12/07 03:22:42;;;;;;;;;;;;;;;;;;5047621;28;19913;-78
2020/12/07 03:25:08;;;;;;;;;;;;;;;;;;5012278;28;19964;-81
2020/12/07 03:27:33;;;;;;;;;;;;;;;;;;5013318;28;19909;-80
2020/12/07 03:29:59;;;;;;;;;;;;;;;;;;5044583;28;19965;-78
2020/12/07 03:32:25;;;;;;;;;;;;;;;;;;5011859;28;19984;-79
2020/12/07 03:34:51;;;;;;;;;;;;;;;;;;5011601;28;20375;-78
2020/12/07 03:37:17;;;;;;;;;;;;;;;;;;5012425;28;19941;-79
2020/12/07 03:39:43;;;;;;;;;;;;;;;;;;5026753;28;19996;-77
2020/12/07 03:42:09;;;;;;;;;;;;;;;;;;5011677;28;20368;-81
2020/12/07 03:44:35;;;;;;;;;;;;;;;;;;5014787;28;19935;-80
2020/12/07 03:47:01;;;;;;;;;;;;;;;;;;5013075;28;19921;-79
2020/12/07 03:49:27;;;;;;;;;;;;;;;;;;5015894;28;19920;-80
2020/12/07 03:51:52;;;;;;;;;;;;;;;;;;5015524;28;19916;-80
2020/12/07 03:54:18;;;;;;;;;;;;;;;;;;5013354;28;19944;-79
2020/12/07 03:56:44;;;;;;;;;;;;;;;;;;5020944;28;19913;-79
2020/12/07 03:59:10;;;;;;;;;;;;;;;;;;5031108;28;19951;-79
2020/12/07 04:01:37;;;;;;;;;;;;;;;;;;5063741;22;19924;-69
2020/12/07 04:04:06;;;;;;;;;;;;;;;;;;5053664;28;19959;-69
2020/12/07 04:06:36;;;;;;;;;;;;;;;;;;5054278;28;19913;-69
2020/12/07 04:09:02;;;;;;;;;;;;;;;;;;5054209;28;19999;-69
2020/12/07 04:11:27;;;;;;;;;;;;;;;;;;5053248;28;19952;-69
2020/12/07 04:13:53;;;;;;;;;;;;;;;;;;5054364;28;20015;-69
2020/12/07 04:16:19;;;;;;;;;;;;;;;;;;5054371;28;19909;-69
2020/12/07 04:18:45;;;;;;;;;;;;;;;;;;5054000;28;20394;-69
2020/12/07 04:21:11;;;;;;;;;;;;;;;;;;5054363;28;19935;-69
2020/12/07 04:23:37;;;;;;;;;;;;;;;;;;5053205;28;19948;-69
2020/12/07 04:26:03;;;;;;;;;;;;;;;;;;5054251;28;20003;-70
2020/12/07 04:28:29;;;;;;;;;;;;;;;;;;5054074;28;20343;-69
2020/12/07 04:30:55;;;;;;;;;;;;;;;;;;5054010;28;19909;-69
2020/12/07 04:33:21;;;;;;;;;;;;;;;;;;5053750;28;19916;-69
2020/12/07 04:35:47;;;;;;;;;;;;;;;;;;5053028;28;19951;-69
2020/12/07 04:38:12;;;;;;;;;;;;;;;;;;5053410;28;19955;-68
2020/12/07 04:40:38;;;;;;;;;;;;;;;;;;5053796;28;20497;-69
2020/12/07 04:43:04;;;;;;;;;;;;;;;;;;5053684;28;19958;-69
2020/12/07 04:45:30;;;;;;;;;;;;;;;;;;5053702;28;19935;-69
2020/12/07 04:47:56;;;;;;;;;;;;;;;;;;5053332;28;20426;-69
2020/12/07 04:50:22;;;;;;;;;;;;;;;;;;5053396;28;19909;-69
2020/12/07 04:52:48;;;;;;;;;;;;;;;;;;5053475;28;19924;-69
2020/12/07 04:55:14;;;;;;;;;;;;;;;;;;5052457;28;19963;-69
2020/12/07 04:57:40;;;;;;;;;;;;;;;;;;5053208;28;19909;-69
2020/12/07 05:00:06;;;;;;;;;;;;;;;;;;5053477;28;20426;-69
2020/12/07 05:02:32;;;;;;;;;;;;;;;;;;5052981;28;19952;-68
2020/12/07 05:04:58;;;;;;;;;;;;;;;;;;5053682;28;19915;-69
2020/12/07 05:07:24;;;;;;;;;;;;;;;;;;5052985;28;19916;-69
2020/12/07 05:09:50;;;;;;;;;;;;;;;;;;5052305;28;19916;-69
2020/12/07 05:12:22;;;;;;;;;;;;;;;;;;5052453;28;19932;-69
2020/12/07 05:14:48;;;;;;;;;;;;;;;;;;5052700;28;19913;-69
2020/12/07 05:17:14;;;;;;;;;;;;;;;;;;5052825;28;19909;-68
2020/12/07 05:19:40;;;;;;;;;;;;;;;;;;5052927;28;19909;-69
2020/12/07 05:22:06;;;;;;;;;;;;;;;;;;5053007;28;20292;-69
2020/12/07 05:24:32;;;;;;;;;;;;;;;;;;5053026;28;19909;-69
2020/12/07 05:26:58;;;;;;;;;;;;;;;;;;5051794;28;19932;-69
2020/12/07 05:29:30;;;;;;;;;;;;;;;;;;5052593;28;20352;-69
2020/12/07 05:31:56;;;;;;;;;;;;;;;;;;5053026;28;20516;-69
2020/12/07 05:34:22;;;;;;;;;;;;;;;;;;5053497;28;19919;-69
2020/12/07 05:36:47;;;;;;;;;;;;;;;;;;5053128;28;19976;-69
2020/12/07 05:39:13;;;;;;;;;;;;;;;;;;5053105;28;19909;-69
2020/12/07 05:41:39;;;;;;;;;;;;;;;;;;5053006;28;20424;-69
2020/12/07 05:44:05;;;;;;;;;;;;;;;;;;5052567;28;19909;-69
2020/12/07 05:46:31;;;;;;;;;;;;;;;;;;5052565;28;20023;-68
2020/12/07 05:48:57;;;;;;;;;;;;;;;;;;5052391;28;19944;-69
2020/12/07 05:51:23;;;;;;;;;;;;;;;;;;5052812;28;19921;-69
2020/12/07 05:53:49;;;;;;;;;;;;;;;;;;5052315;28;20007;-69
2020/12/07 05:56:15;;;;;;;;;;;;;;;;;;5052458;28;19909;-69
2020/12/07 05:58:41;;;;;;;;;;;;;;;;;;5051973;28;19919;-69
2020/12/07 06:01:07;;;;;;;;;;;;;;;;;;5052069;28;19917;-69
2020/12/07 06:03:33;;;;;;;;;;;;;;;;;;5052141;28;19916;-69
2020/12/07 06:05:59;;;;;;;;;;;;;;;;;;5052194;28;19916;-69
2020/12/07 06:08:24;;;;;;;;;;;;;;;;;;5050683;28;20615;-69
2020/12/07 06:10:50;;;;;;;;;;;;;;;;;;5051470;28;19994;-69
2020/12/07 06:13:16;;;;;;;;;;;;;;;;;;5051703;28;20012;-69
2020/12/07 06:15:42;;;;;;;;;;;;;;;;;;5051814;28;20004;-69
2020/12/07 06:18:08;;;;;;;;;;;;;;;;;;5051881;28;20019;-69
2020/12/07 06:20:34;;;;;;;;;;;;;;;;;;5046855;28;19950;-70
2020/12/07 06:23:00;;;;;;;;;;;;;;;;;;5050846;28;19923;-69
2020/12/07 06:25:26;;;;;;;;;;;;;;;;;;5045184;28;19957;-69
2020/12/07 06:27:52;;;;;;;;;;;;;;;;;;5051458;28;19940;-69
2020/12/07 06:30:18;;;;;;;;;;;;;;;;;;5051363;28;20300;-69
2020/12/07 06:32:44;;;;;;;;;;;;;;;;;;5050146;28;19909;-69
2020/12/07 06:35:10;;;;;;;;;;;;;;;;;;5052099;28;19909;-69
2020/12/07 06:37:36;;;;;;;;;;;;;;;;;;5045315;28;19915;-69
2020/12/07 06:40:02;;;;;;;;;;;;;;;;;;5048521;28;19956;-69
2020/12/07 06:42:28;;;;;;;;;;;;;;;;;;5051539;28;20008;-69
2020/12/07 06:44:54;;;;;;;;;;;;;;;;;;5051665;28;20291;-69
2020/12/07 06:47:23;;;;;;;;;;;;;;;;;;5049071;28;19966;-68
2020/12/07 06:49:57;;;;;;;;;;;;;;;;;;5046929;28;20369;-69
2020/12/07 06:52:25;;;;;;;;;;;;;;;;;;5044126;28;19969;-68
2020/12/07 06:55:06;;;;;;;;;;;;;;;;;;5051340;28;19925;-69
2020/12/07 06:57:32;;;;;;;;;;;;;;;;;;5051358;28;19920;-69
2020/12/07 07:00:00;;;;;;;;;;;;;;;;;;5051123;28;19943;-69
2020/12/07 07:02:25;;;;;;;;;;;;;;;;;;5051233;28;20368;-69
2020/12/07 07:04:51;;;;;;;;;;;;;;;;;;5051513;28;19976;-69
2020/12/07 07:07:17;;;;;;;;;;;;;;;;;;5047110;28;19956;-69
2020/12/07 07:09:43;;;;;;;;;;;;;;;;;;5044975;28;20460;-69
2020/12/07 07:12:09;;;;;;;;;;;;;;;;;;5047994;28;20003;-67
2020/12/07 07:14:35;;;;;;;;;;;;;;;;;;5046895;28;19913;-68
2020/12/07 07:17:01;;;;;;;;;;;;;;;;;;5051200;28;20295;-67
2020/12/07 07:19:27;;;;;;;;;;;;;;;;;;5051029;28;19908;-67
2020/12/07 07:21:53;;;;;;;;;;;;;;;;;;5039861;28;19915;-68
2020/12/07 07:24:18;;;;;;;;;;;;;;;;;;5045017;28;20537;-67
2020/12/07 07:26:45;;;;;;;;;;;;;;;;;;5049154;28;19935;-70
2020/12/07 07:29:11;;;;;;;;;;;;;;;;;;5047454;28;19948;-67
2020/12/07 07:31:37;;;;;;;;;;;;;;;;;;5040921;28;20356;-67
2020/12/07 07:34:03;;;;;;;;;;;;;;;;;;5053402;28;20372;-69
2020/12/07 07:36:29;;;;;;;;;;;;;;;;;;5054016;28;19940;-69
2020/12/07 07:38:55;;;;;;;;;;;;;;;;;;5054458;28;19996;-69
2020/12/07 07:41:21;;;;;;;;;;;;;;;;;;5055159;28;19913;-67
2020/12/07 07:43:46;;;;;;;;;;;;;;;;;;5054559;28;19913;-69
2020/12/07 07:46:12;;;;;;;;;;;;;;;;;;5053958;28;19909;-69
2020/12/07 07:48:49;;;;;;;;;;;;;;;;;;5052080;28;19924;-69
2020/12/07 08:17:38;;;;;;;;;;;;;;;;;;5053955;28;19959;-69
2020/12/07 08:20:03;;;;;;;;;;;;;;;;;;5052886;28;19975;-69
2020/12/07 08:22:29;;;;;;;;;;;;;;;;;;5053754;28;19952;-69
2020/12/07 08:24:59;;;;;;;;;;;;;;;;;;5054049;28;19916;-69
2020/12/07 08:27:25;;;;;;;;;;;;;;;;;;5054041;28;19975;-69
2020/12/07 08:29:51;;;;;;;;;;;;;;;;;;5054293;28;20556;-69
2020/12/07 08:32:16;;;;;;;;;;;;;;;;;;5048452;28;20007;-69
2020/12/07 08:34:42;;;;;;;;;;;;;;;;;;5053879;28;19912;-68
2020/12/07 08:37:08;;;;;;;;;;;;;;;;;;5053754;28;19908;-69
2020/12/07 08:39:34;;;;;;;;;;;;;;;;;;5053804;28;19919;-69
2020/12/07 08:42:00;;;;;;;;;;;;;;;;;;5054979;28;19915;-69
2020/12/07 08:44:26;;;;;;;;;;;;;;;;;;5054009;28;19951;-69
2020/12/07 08:46:52;;;;;;;;;;;;;;;;;;5054598;28;20410;-69
2020/12/07 08:49:18;;;;;;;;;;;;;;;;;;5052992;28;19932;-69
2020/12/07 08:51:45;;;;;;;;;;;;;;;;;;5053379;28;19908;-68
2020/12/07 08:54:11;;;;;;;;;;;;;;;;;;5052152;28;19913;-69
2020/12/07 08:56:37;;;;;;;;;;;;;;;;;;5053419;28;19947;-69
2020/12/07 08:59:02;;;;;;;;;;;;;;;;;;5053164;28;19915;-71
2020/12/07 09:01:28;;;;;;;;;;;;;;;;;;5054151;28;19923;-68
2020/12/07 09:03:54;;;;;;;;;;;;;;;;;;5054273;28;19948;-69
2020/12/07 09:06:20;;;;;;;;;;;;;;;;;;5053717;28;20180;-69
2020/12/07 09:08:46;;;;;;;;;;;;;;;;;;5052177;28;20292;-69
2020/12/07 09:11:12;;;;;;;;;;;;;;;;;;5054106;28;19908;-70
2020/12/07 09:13:39;;;;;;;;;;;;;;;;;;5052456;28;19939;-69
2020/12/07 09:16:05;;;;;;;;;;;;;;;;;;5053781;28;19909;-69
2020/12/07 09:18:31;;;;;;;;;;;;;;;;;;5053142;28;20002;-69
2020/12/07 09:20:56;;;;;;;;;;;;;;;;;;5052779;28;19944;-69
2020/12/07 09:23:24;;;;;;;;;;;;;;;;;;5052956;28;19920;-69
2020/12/07 09:25:50;;;;;;;;;;;;;;;;;;5052113;28;20380;-69
2020/12/07 09:28:16;;;;;;;;;;;;;;;;;;5052872;28;19945;-69
2020/12/07 09:30:42;;;;;;;;;;;;;;;;;;5053354;28;20323;-69
2020/12/07 09:33:08;;;;;;;;;;;;;;;;;;5052675;28;20031;-70
2020/12/07 09:35:34;;;;;;;;;;;;;;;;;;5052742;28;19951;-69
2020/12/07 09:38:00;;;;;;;;;;;;;;;;;;5051155;28;20465;-69
2020/12/07 09:40:26;;;;;;;;;;;;;;;;;;5051934;28;19915;-69
2020/12/07 09:42:52;;;;;;;;;;;;;;;;;;5050356;28;20003;-69
2020/12/07 09:45:18;;;;;;;;;;;;;;;;;;5049317;28;19927;-69
2020/12/07 09:47:44;;;;;;;;;;;;;;;;;;5051928;28;19948;-69
2020/12/07 09:50:10;;;;;;;;;;;;;;;;;;5036474;28;19983;-68
2020/12/07 09:52:36;;;;;;;;;;;;;;;;;;5040980;28;19956;-69
2020/12/07 09:55:02;;;;;;;;;;;;;;;;;;5039360;28;19944;-68
2020/12/07 09:57:27;;;;;;;;;;;;;;;;;;5041396;28;20388;-67
2020/12/07 09:59:53;;;;;;;;;;;;;;;;;;5032028;28;20004;-68
2020/12/07 10:02:19;;;;;;;;;;;;;;;;;;5032125;28;19913;-67
2020/12/07 10:04:45;;;;;;;;;;;;;;;;;;5031965;28;19947;-68
2020/12/07 10:07:11;;;;;;;;;;;;;;;;;;5036239;28;19964;-68
2020/12/07 10:09:37;;;;;;;;;;;;;;;;;;5061198;28;19944;-69
2020/12/07 10:12:03;;;;;;;;;;;;;;;;;;5050805;28;20008;-70
2020/12/07 10:14:29;;;;;;;;;;;;;;;;;;5050480;28;20042;-70
2020/12/07 10:16:56;;;;;;;;;;;;;;;;;;5051267;28;20359;-67
2020/12/07 10:19:22;;;;;;;;;;;;;;;;;;5067897;22;20455;-67
2020/12/07 10:21:48;;;;;;;;;;;;;;;;;;5051455;28;19948;-68
2020/12/07 10:24:13;;;;;;;;;;;;;;;;;;5049415;28;20344;-69
2020/12/07 10:26:39;;;;;;;;;;;;;;;;;;5051941;28;20347;-69
2020/12/07 10:29:05;;;;;;;;;;;;;;;;;;5051854;28;19996;-70
2020/12/07 10:31:31;;;;;;;;;;;;;;;;;;5050621;28;20291;-70
2020/12/07 10:33:57;;;;;;;;;;;;;;;;;;5051102;28;20018;-72
2020/12/07 10:36:24;;;;;;;;;;;;;;;;;;5051224;28;19920;-71
2020/12/07 10:38:50;;;;;;;;;;;;;;;;;;5051538;28;19934;-69
2020/12/07 10:41:16;;;;;;;;;;;;;;;;;;5051694;28;20000;-68
2020/12/07 10:43:42;;;;;;;;;;;;;;;;;;5051638;28;19916;-71
2020/12/07 10:46:08;;;;;;;;;;;;;;;;;;5051753;28;19935;-72
2020/12/07 10:48:34;;;;;;;;;;;;;;;;;;5051269;28;20450;-69
2020/12/07 10:50:59;;;;;;;;;;;;;;;;;;5049592;28;19913;-68
2020/12/07 10:53:25;;;;;;;;;;;;;;;;;;5051834;28;20332;-69
2020/12/07 10:55:52;;;;;;;;;;;;;;;;;;5051289;28;19915;-69
2020/12/07 10:58:18;;;;;;;;;;;;;;;;;;5050997;28;19920;-68
2020/12/07 11:00:44;;;;;;;;;;;;;;;;;;5051397;28;20047;-69
2020/12/07 11:03:11;;;;;;;;;;;;;;;;;;5051569;28;19909;-67
2020/12/07 11:05:38;;;;;;;;;;;;;;;;;;5051086;28;19917;-68
2020/12/07 11:08:14;;;;;;;;;;;;;;;;;;5050738;28;20418;-69
2020/12/07 11:10:40;;;;;;;;;;;;;;;;;;5048108;28;20288;-68
2020/12/07 11:13:17;;;;;;;;;;;;;;;;;;5050091;28;19944;-68
2020/12/07 11:15:43;;;;;;;;;;;;;;;;;;5051588;28;19970;-72
2020/12/07 11:18:09;;;;;;;;;;;;;;;;;;5049888;28;20444;-69
2020/12/07 11:20:35;;;;;;;;;;;;;;;;;;5050018;28;20003;-69
2020/12/07 11:23:01;;;;;;;;;;;;;;;;;;5050132;28;19920;-69
2020/12/07 11:25:27;;;;;;;;;;;;;;;;;;5049495;28;19920;-68
2020/12/07 11:27:53;;;;;;;;;;;;;;;;;;5051081;28;19909;-70
2020/12/07 11:30:19;;;;;;;;;;;;;;;;;;5051272;28;19958;-69
2020/12/07 11:32:45;;;;;;;;;;;;;;;;;;5049889;28;20015;-69
2020/12/07 11:35:11;;;;;;;;;;;;;;;;;;5051315;28;19957;-72
2020/12/07 11:37:38;;;;;;;;;;;;;;;;;;5050249;28;20003;-68
2020/12/07 11:40:22;;;;;;;;;;;;;;;;;;5051133;28;20268;-69
2020/12/07 11:43:03;;;;;;;;;;;;;;;;;;5051904;28;19912;-68
2020/12/07 11:45:29;;;;;;;;;;;;;;;;;;5050720;28;19913;-69
2020/12/07 11:47:54;;;;;;;;;;;;;;;;;;5050636;28;20271;-69
2020/12/07 11:50:20;;;;;;;;;;;;;;;;;;5051807;28;19905;-68
2020/12/07 11:52:46;;;;;;;;;;;;;;;;;;5051090;28;19912;-68
2020/12/07 11:55:12;;;;;;;;;;;;;;;;;;5050528;28;20380;-69
2020/12/07 11:57:38;;;;;;;;;;;;;;;;;;5049104;28;20000;-70
2020/12/07 12:00:04;;;;;;;;;;;;;;;;;;5050319;28;19909;-71
2020/12/07 12:02:30;;;;;;;;;;;;;;;;;;5051460;28;20263;-68
2020/12/07 12:04:56;;;;;;;;;;;;;;;;;;5050775;28;19987;-69
2020/12/07 12:07:22;;;;;;;;;;;;;;;;;;5050680;28;19956;-68
2020/12/07 12:09:48;;;;;;;;;;;;;;;;;;5048603;28;19991;-69
2020/12/07 12:12:14;;;;;;;;;;;;;;;;;;5049130;28;20003;-69
2020/12/07 12:14:39;;;;;;;;;;;;;;;;;;5050878;28;20360;-69
2020/12/07 12:17:05;;;;;;;;;;;;;;;;;;5049427;28;20357;-70
2020/12/07 12:19:31;;;;;;;;;;;;;;;;;;5052949;28;19951;-71
2020/12/07 12:21:57;;;;;;;;;;;;;;;;;;5053818;28;19908;-72
2020/12/07 12:24:24;;;;;;;;;;;;;;;;;;5042328;28;19905;-69
2020/12/07 12:26:50;;;;;;;;;;;;;;;;;;5033848;28;19912;-70
2020/12/07 12:29:16;;;;;;;;;;;;;;;;;;5037536;28;19909;-68
2020/12/07 12:31:42;;;;;;;;;;;;;;;;;;5054352;28;20322;-71
2020/12/07 12:34:08;;;;;;;;;;;;;;;;;;5053483;28;19948;-72
2020/12/07 12:36:34;;;;;;;;;;;;;;;;;;5052216;28;19944;-69
2020/12/07 12:39:00;;;;;;;;;;;;;;;;;;5053319;28;19951;-69
2020/12/07 12:41:26;;;;;;;;;;;;;;;;;;5053174;28;19904;-69
2020/12/07 12:43:51;;;;;;;;;;;;;;;;;;5053928;28;19989;-69
2020/12/07 12:46:17;;;;;;;;;;;;;;;;;;5053056;28;19905;-69
2020/12/07 12:48:43;;;;;;;;;;;;;;;;;;5053584;28;20259;-69
2020/12/07 12:51:09;;;;;;;;;;;;;;;;;;5053476;28;20323;-70
2020/12/07 12:53:35;;;;;;;;;;;;;;;;;;5053422;28;19973;-70
2020/12/07 12:56:01;;;;;;;;;;;;;;;;;;5051980;28;19940;-72
2020/12/07 12:58:27;;;;;;;;;;;;;;;;;;5053457;28;19967;-72
2020/12/07 13:00:53;;;;;;;;;;;;;;;;;;5051888;28;19999;-69
2020/12/07 13:03:19;;;;;;;;;;;;;;;;;;5053332;28;20003;-68
2020/12/07 13:05:46;;;;;;;;;;;;;;;;;;5053312;28;19967;-68
2020/12/07 13:08:12;;;;;;;;;;;;;;;;;;5052959;28;19948;-71
2020/12/07 13:10:38;;;;;;;;;;;;;;;;;;5052692;28;20002;-70
2020/12/07 13:13:04;;;;;;;;;;;;;;;;;;5051467;28;19909;-70
2020/12/07 13:15:31;;;;;;;;;;;;;;;;;;5052819;28;19905;-71
2020/12/07 13:18:00;;;;;;;;;;;;;;;;;;5052834;28;20003;-69
2020/12/07 13:20:37;;;;;;;;;;;;;;;;;;5051745;28;19913;-69
2020/12/07 13:23:22;;;;;;;;;;;;;;;;;;5052594;28;19912;-72
2020/12/07 13:26:06;;;;;;;;;;;;;;;;;;5052949;28;19905;-68
2020/12/07 13:28:32;;;;;;;;;;;;;;;;;;5052893;28;19901;-69
2020/12/07 13:30:58;;;;;;;;;;;;;;;;;;5052386;28;19975;-69
2020/12/07 13:33:23;;;;;;;;;;;;;;;;;;5052891;28;19909;-69
2020/12/07 13:35:49;;;;;;;;;;;;;;;;;;5051562;28;19948;-71
2020/12/07 13:38:15;;;;;;;;;;;;;;;;;;5052658;28;19995;-70
2020/12/07 13:40:41;;;;;;;;;;;;;;;;;;5052480;28;19912;-69
2020/12/07 13:43:07;;;;;;;;;;;;;;;;;;5052490;28;19913;-70
2020/12/07 13:45:33;;;;;;;;;;;;;;;;;;5051467;28;19952;-69
2020/12/07 13:47:59;;;;;;;;;;;;;;;;;;5052235;28;20003;-69
2020/12/07 13:50:25;;;;;;;;;;;;;;;;;;5052390;28;19909;-69
2020/12/07 13:52:51;;;;;;;;;;;;;;;;;;5052425;28;19900;-69
2020/12/07 13:55:17;;;;;;;;;;;;;;;;;;5051044;28;20574;-69
2020/12/07 13:57:44;;;;;;;;;;;;;;;;;;5052186;28;19905;-69
2020/12/07 14:00:10;;;;;;;;;;;;;;;;;;5052016;28;19912;-68
2020/12/07 14:02:36;;;;;;;;;;;;;;;;;;5052115;28;20244;-68
2020/12/07 14:05:04;;;;;;;;;;;;;;;;;;5052305;28;19909;-68
2020/12/07 14:07:30;;;;;;;;;;;;;;;;;;5052018;28;19905;-68
2020/12/07 14:09:56;;;;;;;;;;;;;;;;;;5051334;28;19917;-69
2020/12/07 14:12:22;;;;;;;;;;;;;;;;;;5051793;28;19915;-68
2020/12/07 14:14:48;;;;;;;;;;;;;;;;;;5052011;28;20386;-70
2020/12/07 14:17:16;;;;;;;;;;;;;;;;;;5051771;28;20356;-71
2020/12/07 14:22:35;;;;;;;;;;;;;;;;;;5051576;28;19912;-70
2020/12/07 14:40:54;;;;;;;;;;;;;;;;;;5050734;28;19912;-69
2020/12/07 14:43:20;;;;;;;;;;;;;;;;;;5051170;28;19909;-70
2020/12/07 14:46:11;;;;;;;;;;;;;;;;;;5051317;28;19979;-68
2020/12/07 14:48:35;;;;;;;;;;;;;;;;;;5049724;28;19970;-70
2020/12/07 14:51:19;;;;;;;;;;;;;;;;;;5050950;28;20273;-71
2020/12/07 14:53:46;;;;;;;;;;;;;;;;;;5049649;28;19909;-68
2020/12/07 14:56:18;;;;;;;;;;;;;;;;;;5050785;28;19952;-70
2020/12/07 15:01:59;;;;;;;;;;;;;;;;;;5051201;28;19915;-69
2020/12/07 15:10:31;;;;;;;;;;;;;;;;;;5051239;28;19905;-70
2020/12/07 15:12:49;;;;;;;;;;;;;;;;;;5051440;28;20245;-71
2020/12/07 15:15:14;;;;;;;;;;;;;;;;;;5051435;28;19932;-69
2020/12/07 15:17:40;;;;;;;;;;;;;;;;;;5049712;28;20368;-68
2020/12/07 15:20:07;;;;;;;;;;;;;;;;;;5050959;28;19983;-67
2020/12/07 15:22:33;;;;;;;;;;;;;;;;;;5051107;28;19905;-68
2020/12/07 15:24:58;;;;;;;;;;;;;;;;;;5051200;28;19905;-68
2020/12/07 15:27:24;;;;;;;;;;;;;;;;;;5051211;28;19927;-68
2020/12/07 15:29:50;;;;;;;;;;;;;;;;;;5049960;28;19959;-69
2020/12/07 15:32:16;;;;;;;;;;;;;;;;;;5050849;28;20019;-69
2020/12/07 15:34:42;;;;;;;;;;;;;;;;;;5049989;28;19991;-71
2020/12/07 15:37:08;;;;;;;;;;;;;;;;;;5050783;28;19963;-69
2020/12/07 15:39:34;;;;;;;;;;;;;;;;;;5059412;28;19974;-67
2020/12/07 15:42:00;;;;;;;;;;;;;;;;;;5053781;28;19959;-68
2020/12/07 15:44:26;;;;;;;;;;;;;;;;;;5050300;28;19944;-69
2020/12/07 15:46:53;;;;;;;;;;;;;;;;;;5050603;28;19944;-68
2020/12/07 15:49:18;;;;;;;;;;;;;;;;;;5050769;28;19931;-67
2020/12/07 15:51:44;;;;;;;;;;;;;;;;;;5050647;28;19901;-69
2020/12/07 15:54:10;;;;;;;;;;;;;;;;;;5053065;28;20364;-68
2020/12/07 15:56:36;;;;;;;;;;;;;;;;;;5053789;28;19994;-68
2020/12/07 15:59:02;;;;;;;;;;;;;;;;;;5054430;28;20024;-69
2020/12/07 16:01:28;;;;;;;;;;;;;;;;;;5054556;28;20332;-68
2020/12/07 16:03:54;;;;;;;;;;;;;;;;;;5054727;28;19928;-69
2020/12/07 16:06:20;;;;;;;;;;;;;;;;;;5053651;28;19918;-71
2020/12/07 16:08:46;;;;;;;;;;;;;;;;;;5054127;28;19905;-70
2020/12/07 16:11:12;;;;;;;;;;;;;;;;;;5054495;28;19909;-71
2020/12/07 16:13:38;;;;;;;;;;;;;;;;;;5054365;28;19960;-67
2020/12/07 16:16:04;;;;;;;;;;;;;;;;;;5053612;28;19992;-68
2020/12/07 16:18:31;;;;;;;;;;;;;;;;;;5041425;28;20424;-69
2020/12/07 16:20:57;;;;;;;;;;;;;;;;;;5034193;28;19917;-69
2020/12/07 16:23:23;;;;;;;;;;;;;;;;;;5034934;28;20368;-66
2020/12/07 16:25:49;;;;;;;;;;;;;;;;;;5070216;22;19931;-68
2020/12/07 16:28:15;;;;;;;;;;;;;;;;;;5050114;28;20321;-68
2020/12/07 16:30:40;;;;;;;;;;;;;;;;;;5052325;28;20288;-69
2020/12/07 16:33:06;;;;;;;;;;;;;;;;;;5069249;28;19913;-69
2020/12/07 16:35:32;;;;;;;;;;;;;;;;;;5071356;28;20055;-69
2020/12/07 16:37:58;;;;;;;;;;;;;;;;;;5072742;28;20398;-68
2020/12/07 16:40:24;;;;;;;;;;;;;;;;;;5061661;28;19908;-69
2020/12/07 16:42:50;;;;;;;;;;;;;;;;;;5068414;28;20502;-69
2020/12/07 16:45:16;;;;;;;;;;;;;;;;;;5072017;28;19908;-67
2020/12/07 16:47:42;;;;;;;;;;;;;;;;;;5073279;28;19956;-69
2020/12/07 16:50:08;;;;;;;;;;;;;;;;;;5073580;28;19943;-70
2020/12/07 16:52:34;;;;;;;;;;;;;;;;;;5073227;28;19908;-70
2020/12/07 16:55:00;;;;;;;;;;;;;;;;;;5072074;28;19955;-67
2020/12/07 16:57:26;;;;;;;;;;;;;;;;;;5071857;28;19954;-66
2020/12/07 16:59:52;;;;;;;;;;;;;;;;;;5072080;28;19917;-70
2020/12/07 17:02:17;;;;;;;;;;;;;;;;;;5071773;28;19948;-67
2020/12/07 17:04:43;;;;;;;;;;;;;;;;;;5071179;28;19919;-70
2020/12/07 17:07:09;;;;;;;;;;;;;;;;;;5072534;28;19915;-70
2020/12/07 17:09:35;;;;;;;;;;;;;;;;;;5071899;28;19915;-69
2020/12/07 17:12:01;;;;;;;;;;;;;;;;;;5073665;28;20279;-70
2020/12/07 17:14:27;;;;;;;;;;;;;;;;;;5072839;28;19962;-69
2020/12/07 17:16:53;;;;;;;;;;;;;;;;;;5073427;28;19935;-70
2020/12/07 17:19:19;;;;;;;;;;;;;;;;;;5053585;28;19913;-70
2020/12/07 17:21:45;;;;;;;;;;;;;;;;;;5051925;28;19909;-70
2020/12/07 17:24:11;;;;;;;;;;;;;;;;;;5051356;28;19967;-70
2020/12/07 17:26:37;;;;;;;;;;;;;;;;;;5068602;28;20201;-69
2020/12/07 17:29:03;;;;;;;;;;;;;;;;;;5054214;28;19916;-69
2020/12/07 17:31:29;;;;;;;;;;;;;;;;;;5053408;28;19954;-69
2020/12/07 17:33:56;;;;;;;;;;;;;;;;;;5051573;28;20015;-70